Home PIREPS Pireps

Flight BEL348

  • Submitted By: Jean-Jacques Scohy
  • Departure Airport: Bruxelles National (EBBR)
  • Arrival Airport: airport Innsbruck (LOWI)
  • Aircraft: A319-112 (OO-SSK)
  • Flight Time: 01.13
  • Date Submitted: 08/01/2018
  • Route: PITES EDISA BATUB UM738 MADEB
  • Status: Accepted
Flight Details
Gross Revenue:
(123 load / € 0.00 per unit
€ 0.00
Fuel Cost:
(2693 fuel used @ 0 / unit)
€ 0.00

Additional Log Information:

View Log

Aircraft Used in flight is Project Opensky Brussels Airlines Boeing 737-800
21:26 You Took off @ 141 Knots and Flaps at Position 3
Departure Weather
EBBR 081950Z 07003KT CAVOK 02/00 Q1017 NOSIGrn
21:26 You are Airborne and your Beacons are off
21:26 You are Airborne and your Navigation Lights are off
21:26 Landing Gear Up @ 149 Knots and 250 Feet
21:27 Below FL100 you need to turn on the landing lights
21:29 You exceeded maximum bank angle
22:26 Landing Gear Down @ 208 Knots and 8610 Feet
22:29 You Landed @ 144 Knots and with -50 Vertical Speed
Arrival Weather
LOWI 082050Z 02015G25KT 340V060 9999 FEW080 BKN250 14/01 Q1018 WS R08 NOSIGrn
22:29 Brakes are On
22:30 Brussels Bel-Track1.0.1.1

Route Map

Corporate About Us Our Team Vacancies Information Fleet Route Network Rules and Regulations Operations Flight Schedules Event Center Tours Partners IVAO Vatsim Acars dev FSCB

fb Users Online No pilots online!
0 Pilot(s) and 184 Guest(s) Online
CMS by phpVMS - Design by Crazycreatives.com - Copyright © 2018 - Brussels Airlines Virtual